Ft Sturla — IBXV — position and weather

sailwx.info

Track history (hours):
 
Tides and Currents Weather Stations Pressure Air Temp Water Temp Dewpoint Dewpoint Depression Visibility Wind Speed Wind Dir Waves Ship Positions

Ft Sturla

Last reported at 2018-Feb-20 06:34 UTC. Time now 2018-Feb-24 08:34 UTC.
Position N 35°52' E 030°23'.

Length 120 m; draft 7.2 m.

Type: Ship (hazmat cat A). MMSI: 247282200.

Date/timePositionNaut miles runAvg speedWind from/ knotsBaromVisibWave heightAir tempDewpointWater temp
2018-Feb-20 06:34N 35°52' E 030°23'110.1
2018-Feb-20 06:30N 35°52' E 030°22'  
2018-Feb-16 08:36N 37°40' E 015°54'210.8
2018-Feb-16 08:24N 37°41' E 015°55'17510.7
2018-Feb-15 16:02N 39°47' E 018°31'010.3
2018-Feb-15 16:01N 39°47' E 018°31'611.0
2018-Feb-15 15:30N 39°52' E 018°34'511.0
2018-Feb-15 15:01N 39°57' E 018°38'34910.9
2018-Feb-14 06:56N 44°43' E 014°07'510.6
2018-Feb-14 06:30N 44°48' E 014°08'10 0.3
2018-Feb-12 21:14N 44°57' E 014°12'3 9.6
2018-Feb-12 20:56N 44°55' E 014°11'4 9.5
2018-Feb-12 20:30N 44°51' E 014°07'5 9.7
2018-Feb-12 20:00N 44°47' E 014°04'5 9.9
2018-Feb-12 19:30N 44°43' E 014°01'5 9.1
2018-Feb-12 18:59N 44°41' E 013°55'7 9.6
2018-Feb-12 18:14N 44°40' E 013°44'3 9.5
2018-Feb-12 17:57N 44°40' E 013°41'4 9.6
2018-Feb-12 17:30N 44°39' E 013°35'4 8.2
2018-Feb-12 17:00N 44°41' E 013°30'510.2
2018-Feb-12 16:30N 44°45' E 013°26'510.2
2018-Feb-12 16:00N 44°49' E 013°21'510.5
2018-Feb-12 15:30N 44°54' E 013°17'5 9.6
2018-Feb-12 15:00N 44°52' E 013°11'510.4
2018-Feb-12 14:30N 44°50' E 013°04'510.4
2018-Feb-12 14:00N 44°47' E 012°58'611.1
2018-Feb-12 13:30N 44°45' E 012°51'610.8
2018-Feb-12 13:00N 44°41' E 012°45'  
Track history (hours):
 
Tides and Currents Weather Stations Pressure Air Temp Water Temp Dewpoint Dewpoint Depression Visibility Wind Speed Wind Dir Waves Ship Positions

Ft Sturla

Last reported at 2018-Feb-20 06:34 UTC. Time now 2018-Feb-24 08:34 UTC.
Position N 35°52' E 030°23'.

Length 120 m; draft 7.2 m.

Type: Ship (hazmat cat A). MMSI: 247282200.

Date/timePositionNaut miles runAvg speedWind from/ knotsBaromVisibWave heightAir tempDewpointWater temp
2018-Feb-20 06:34N 35°52' E 030°23'110.1
2018-Feb-20 06:30N 35°52' E 030°22'  
2018-Feb-16 08:36N 37°40' E 015°54'210.8
2018-Feb-16 08:24N 37°41' E 015°55'17510.7
2018-Feb-15 16:02N 39°47' E 018°31'010.3
2018-Feb-15 16:01N 39°47' E 018°31'611.0
2018-Feb-15 15:30N 39°52' E 018°34'511.0
2018-Feb-15 15:01N 39°57' E 018°38'34910.9
2018-Feb-14 06:56N 44°43' E 014°07'510.6
2018-Feb-14 06:30N 44°48' E 014°08'10 0.3
2018-Feb-12 21:14N 44°57' E 014°12'3 9.6
2018-Feb-12 20:56N 44°55' E 014°11'4 9.5
2018-Feb-12 20:30N 44°51' E 014°07'5 9.7
2018-Feb-12 20:00N 44°47' E 014°04'5 9.9
2018-Feb-12 19:30N 44°43' E 014°01'5 9.1
2018-Feb-12 18:59N 44°41' E 013°55'7 9.6
2018-Feb-12 18:14N 44°40' E 013°44'3 9.5
2018-Feb-12 17:57N 44°40' E 013°41'4 9.6
2018-Feb-12 17:30N 44°39' E 013°35'4 8.2
2018-Feb-12 17:00N 44°41' E 013°30'510.2
2018-Feb-12 16:30N 44°45' E 013°26'510.2
2018-Feb-12 16:00N 44°49' E 013°21'510.5
2018-Feb-12 15:30N 44°54' E 013°17'5 9.6
2018-Feb-12 15:00N 44°52' E 013°11'510.4
2018-Feb-12 14:30N 44°50' E 013°04'510.4
2018-Feb-12 14:00N 44°47' E 012°58'611.1
2018-Feb-12 13:30N 44°45' E 012°51'610.8
2018-Feb-12 13:00N 44°41' E 012°45'  

Dump ship's entire track history